Time;durP1;ratioP1;P1;durP2;ratioP2;P2;SDS_P1;SDS_P2;PMS_P1;PMS_P2;Temp;Humidity;BMP_temperature;BMP_pressure;BME280_temperature;BME280_humidity;BME280_pressure;Samples;Min_cycle;Max_cycle;Signal;HPM_P1;HPM_P2
2024/01/31 05:00:59;;;;;;;1999.90;999.90;;;;;;;;;;5862552;23;21309;-68
2024/01/31 05:03:44;;;;;;;1999.90;999.90;;;;;;;;;;4994249;28;20724;-68
2024/01/31 05:06:29;;;;;;;1999.90;999.90;;;;;;;;;;4994711;28;20293;-68
2024/01/31 05:09:14;;;;;;;1999.90;999.90;;;;;;;;;;4994612;28;20342;-70
2024/01/31 05:11:59;;;;;;;1999.90;999.90;;;;;;;;;;4981107;28;20250;-70
2024/01/31 05:14:44;;;;;;;1999.90;999.90;;;;;;;;;;4971098;28;20583;-69
2024/01/31 05:17:30;;;;;;;1999.90;999.90;;;;;;;;;;4970327;28;20216;-69
2024/01/31 05:20:15;;;;;;;1999.90;999.90;;;;;;;;;;4967086;28;20200;-69
2024/01/31 05:23:00;;;;;;;1999.90;999.90;;;;;;;;;;4971578;28;20612;-69
2024/01/31 05:25:46;;;;;;;1999.90;999.90;;;;;;;;;;4975115;28;20200;-70
2024/01/31 05:28:31;;;;;;;1999.90;999.90;;;;;;;;;;4975719;28;20273;-69
2024/01/31 05:31:16;;;;;;;1999.90;999.90;;;;;;;;;;4972304;28;20258;-69
2024/01/31 05:34:02;;;;;;;1999.90;999.90;;;;;;;;;;4978046;28;20628;-67
2024/01/31 05:36:47;;;;;;;1999.90;999.90;;;;;;;;;;4973068;28;20586;-69
2024/01/31 05:39:32;;;;;;;1999.90;999.90;;;;;;;;;;4974868;28;20428;-67
2024/01/31 05:42:17;;;;;;;1999.90;999.90;;;;;;;;;;4977484;28;20313;-67
2024/01/31 05:45:03;;;;;;;1999.90;999.90;;;;;;;;;;4977868;28;20238;-69
2024/01/31 05:47:48;;;;;;;1999.90;999.90;;;;;;;;;;4977476;28;20226;-67
2024/01/31 05:50:34;;;;;;;1999.90;999.90;;;;;;;;;;4975903;28;20215;-67
2024/01/31 05:53:19;;;;;;;1999.90;999.90;;;;;;;;;;4974922;28;20259;-68
2024/01/31 05:56:04;;;;;;;1999.90;999.90;;;;;;;;;;4981521;28;20267;-69
2024/01/31 05:58:50;;;;;;;1999.90;999.90;;;;;;;;;;4977821;28;20216;-68
2024/01/31 06:01:35;;;;;;;1999.90;999.90;;;;;;;;;;4977593;28;20242;-71
2024/01/31 06:04:20;;;;;;;1999.90;999.90;;;;;;;;;;4976410;28;20238;-69
2024/01/31 06:07:06;;;;;;;1999.90;999.90;;;;;;;;;;4975900;28;20223;-70
2024/01/31 06:09:51;;;;;;;1999.90;999.90;;;;;;;;;;4976379;28;20222;-70
2024/01/31 06:12:36;;;;;;;1999.90;999.90;;;;;;;;;;4971575;28;20605;-69
2024/01/31 06:15:21;;;;;;;1999.90;999.90;;;;;;;;;;4975919;28;20751;-66
2024/01/31 06:18:07;;;;;;;1999.90;999.90;;;;;;;;;;4973812;28;20703;-66
2024/01/31 06:20:52;;;;;;;1999.90;999.90;;;;;;;;;;4975641;28;20706;-66
2024/01/31 06:23:38;;;;;;;1999.90;999.90;;;;;;;;;;4976024;28;20226;-70
2024/01/31 06:26:23;;;;;;;1999.90;999.90;;;;;;;;;;4968148;28;20214;-69
2024/01/31 06:29:11;;;;;;;1999.90;999.90;;;;;;;;;;4974990;28;20215;-69
2024/01/31 06:32:00;;;;;;;1999.90;999.90;;;;;;;;;;4975355;28;20239;-69
2024/01/31 06:34:45;;;;;;;1999.90;999.90;;;;;;;;;;4975293;28;20215;-69
2024/01/31 06:37:30;;;;;;;1999.90;999.90;;;;;;;;;;4973780;28;20215;-69
2024/01/31 06:40:16;;;;;;;1999.90;999.90;;;;;;;;;;4975165;28;20350;-69
2024/01/31 06:43:01;;;;;;;1999.90;999.90;;;;;;;;;;4975162;28;20229;-69
2024/01/31 06:45:47;;;;;;;1999.90;999.90;;;;;;;;;;4979937;28;20204;-69
2024/01/31 06:48:32;;;;;;;1999.90;999.90;;;;;;;;;;4968287;28;20212;-69
2024/01/31 06:51:17;;;;;;;1999.90;999.90;;;;;;;;;;4975016;28;20323;-69
2024/01/31 06:54:03;;;;;;;1999.90;999.90;;;;;;;;;;4974996;28;20284;-69
2024/01/31 06:56:50;;;;;;;1999.90;999.90;;;;;;;;;;4976046;28;20266;-70
2024/01/31 06:59:36;;;;;;;1999.90;999.90;;;;;;;;;;4967175;28;20781;-71
2024/01/31 07:02:21;;;;;;;1999.90;999.90;;;;;;;;;;4974582;28;20378;-71
2024/01/31 07:05:06;;;;;;;1999.90;999.90;;;;;;;;;;4974404;28;20225;-71
2024/01/31 07:07:51;;;;;;;1999.90;999.90;;;;;;;;;;4974584;28;20247;-71
2024/01/31 07:10:36;;;;;;;1999.90;999.90;;;;;;;;;;4968117;28;20654;-71
2024/01/31 07:13:22;;;;;;;1999.90;999.90;;;;;;;;;;4975070;28;20275;-71
2024/01/31 07:16:09;;;;;;;1999.90;999.90;;;;;;;;;;4974462;28;20589;-71
2024/01/31 07:18:54;;;;;;;1999.90;999.90;;;;;;;;;;4973879;28;20223;-71
2024/01/31 07:21:39;;;;;;;1999.90;999.90;;;;;;;;;;4974373;28;20950;-71
2024/01/31 07:24:24;;;;;;;1999.90;999.90;;;;;;;;;;4973895;28;20227;-71
2024/01/31 07:27:09;;;;;;;1999.90;999.90;;;;;;;;;;4974117;28;20340;-71
2024/01/31 07:29:55;;;;;;;1999.90;999.90;;;;;;;;;;4974276;28;20338;-71
2024/01/31 07:32:40;;;;;;;1999.90;999.90;;;;;;;;;;4974155;28;20234;-71
2024/01/31 07:35:26;;;;;;;1999.90;999.90;;;;;;;;;;4974106;28;20208;-71
2024/01/31 07:38:10;;;;;;;1999.90;999.90;;;;;;;;;;4973502;28;20212;-70
2024/01/31 07:40:55;;;;;;;1999.90;999.90;;;;;;;;;;4981080;28;20239;-68
2024/01/31 07:43:41;;;;;;;1999.90;999.90;;;;;;;;;;4973961;28;20292;-71
2024/01/31 07:46:27;;;;;;;1999.90;999.90;;;;;;;;;;4973442;28;21121;-71
2024/01/31 07:49:13;;;;;;;1999.90;999.90;;;;;;;;;;4980058;28;20215;-71
2024/01/31 07:51:57;;;;;;;1999.90;999.90;;;;;;;;;;4970133;28;20335;-71
2024/01/31 07:54:42;;;;;;;1999.90;999.90;;;;;;;;;;4971256;28;20611;-69
2024/01/31 07:57:27;;;;;;;1999.90;999.90;;;;;;;;;;4972117;28;20747;-70
2024/01/31 08:00:13;;;;;;;1999.90;999.90;;;;;;;;;;4970970;28;20227;-69
2024/01/31 08:02:59;;;;;;;1999.90;999.90;;;;;;;;;;4971597;28;20765;-70
2024/01/31 08:05:44;;;;;;;1999.90;999.90;;;;;;;;;;4970317;28;20731;-70
2024/01/31 08:08:29;;;;;;;1999.90;999.90;;;;;;;;;;4966741;28;20298;-70
2024/01/31 08:11:14;;;;;;;1999.90;999.90;;;;;;;;;;4966941;28;20242;-71
2024/01/31 08:13:59;;;;;;;1999.90;999.90;;;;;;;;;;4965068;28;20581;-71
2024/01/31 08:16:44;;;;;;;1999.90;999.90;;;;;;;;;;4966746;28;20708;-71
2024/01/31 08:19:30;;;;;;;1999.90;999.90;;;;;;;;;;4966690;28;20230;-70
2024/01/31 08:22:15;;;;;;;1999.90;999.90;;;;;;;;;;4971375;28;20242;-70
2024/01/31 08:25:00;;;;;;;1999.90;999.90;;;;;;;;;;4971023;28;20828;-70
2024/01/31 08:27:48;;;;;;;1999.90;999.90;;;;;;;;;;4964163;28;20334;-69
2024/01/31 08:30:33;;;;;;;1999.90;999.90;;;;;;;;;;4969253;28;20215;-70
2024/01/31 08:33:18;;;;;;;1999.90;999.90;;;;;;;;;;4966317;28;20572;-70
2024/01/31 08:36:05;;;;;;;1999.90;999.90;;;;;;;;;;4968888;28;20945;-69
2024/01/31 08:38:50;;;;;;;1999.90;999.90;;;;;;;;;;4967612;28;20324;-70
2024/01/31 08:41:36;;;;;;;1999.90;999.90;;;;;;;;;;4970858;28;20235;-70
2024/01/31 08:44:20;;;;;;;1999.90;999.90;;;;;;;;;;4970344;28;20845;-70
2024/01/31 08:47:06;;;;;;;1999.90;999.90;;;;;;;;;;4970611;28;20580;-70
2024/01/31 08:49:51;;;;;;;1999.90;999.90;;;;;;;;;;4969581;28;20942;-70
2024/01/31 08:52:37;;;;;;;1999.90;999.90;;;;;;;;;;4970102;28;20351;-69
2024/01/31 08:55:22;;;;;;;1999.90;999.90;;;;;;;;;;4971004;28;20211;-69
2024/01/31 08:58:07;;;;;;;1999.90;999.90;;;;;;;;;;4967283;28;20210;-70
2024/01/31 09:00:52;;;;;;;1999.90;999.90;;;;;;;;;;4969001;28;20301;-70
2024/01/31 09:03:37;;;;;;;1999.90;999.90;;;;;;;;;;4975432;28;20200;-70
2024/01/31 09:06:22;;;;;;;1999.90;999.90;;;;;;;;;;4973482;28;20588;-71
2024/01/31 09:09:08;;;;;;;1999.90;999.90;;;;;;;;;;4973144;28;20212;-69
2024/01/31 09:11:53;;;;;;;1999.90;999.90;;;;;;;;;;4973539;28;20232;-70
2024/01/31 09:14:38;;;;;;;1999.90;999.90;;;;;;;;;;4970834;28;20723;-69
2024/01/31 09:17:23;;;;;;;1999.90;999.90;;;;;;;;;;4969305;28;20602;-69
2024/01/31 09:20:10;;;;;;;1999.90;999.90;;;;;;;;;;4973787;28;20735;-70
2024/01/31 09:22:55;;;;;;;1999.90;999.90;;;;;;;;;;4973482;28;20218;-70
2024/01/31 09:25:42;;;;;;;1999.90;999.90;;;;;;;;;;4971970;28;20739;-69
2024/01/31 09:28:27;;;;;;;1999.90;999.90;;;;;;;;;;4974192;28;20688;-69
2024/01/31 09:31:19;;;;;;;1999.90;999.90;;;;;;;;;;4974296;28;20235;-69
2024/01/31 09:34:04;;;;;;;1999.90;999.90;;;;;;;;;;4974153;28;20212;-69
2024/01/31 09:36:49;;;;;;;1999.90;999.90;;;;;;;;;;4972594;28;20419;-70
2024/01/31 09:39:34;;;;;;;1999.90;999.90;;;;;;;;;;4972346;28;20242;-70
2024/01/31 09:42:20;;;;;;;1999.90;999.90;;;;;;;;;;4971329;28;20235;-69
2024/01/31 09:45:06;;;;;;;1999.90;999.90;;;;;;;;;;4973193;28;20227;-70
2024/01/31 09:47:52;;;;;;;1999.90;999.90;;;;;;;;;;4971583;28;20708;-70
2024/01/31 09:50:37;;;;;;;1999.90;999.90;;;;;;;;;;4970894;28;20212;-70
2024/01/31 09:53:23;;;;;;;1999.90;999.90;;;;;;;;;;4970043;28;20437;-69
2024/01/31 09:56:09;;;;;;;1999.90;999.90;;;;;;;;;;4970174;28;20263;-71
2024/01/31 09:58:56;;;;;;;1999.90;999.90;;;;;;;;;;4970124;28;20800;-70
2024/01/31 10:01:42;;;;;;;1999.90;999.90;;;;;;;;;;4969898;28;20318;-69
2024/01/31 10:04:27;;;;;;;1999.90;999.90;;;;;;;;;;4971306;28;20443;-70
2024/01/31 10:07:12;;;;;;;1999.90;999.90;;;;;;;;;;4973455;28;20595;-69
2024/01/31 10:09:57;;;;;;;1999.90;999.90;;;;;;;;;;4972504;28;20262;-69
2024/01/31 10:12:43;;;;;;;1999.90;999.90;;;;;;;;;;4970236;28;20236;-70
2024/01/31 10:15:29;;;;;;;1999.90;999.90;;;;;;;;;;4973322;28;20339;-69
2024/01/31 10:18:15;;;;;;;1999.90;999.90;;;;;;;;;;4973626;28;20315;-70
2024/01/31 10:21:01;;;;;;;1999.90;999.90;;;;;;;;;;4973043;28;20418;-70
2024/01/31 10:23:55;;;;;;;1999.90;999.90;;;;;;;;;;4972570;28;20223;-69
2024/01/31 10:26:40;;;;;;;1999.90;999.90;;;;;;;;;;4972984;28;20694;-69
2024/01/31 10:29:25;;;;;;;1999.90;999.90;;;;;;;;;;4971491;28;20215;-70
2024/01/31 10:32:12;;;;;;;1999.90;999.90;;;;;;;;;;4973125;28;20251;-70
2024/01/31 10:34:57;;;;;;;1999.90;999.90;;;;;;;;;;4973132;28;20227;-70
2024/01/31 10:37:42;;;;;;;1999.90;999.90;;;;;;;;;;4973247;28;20224;-70
2024/01/31 10:40:28;;;;;;;1999.90;999.90;;;;;;;;;;4976151;28;20287;-71
2024/01/31 10:43:14;;;;;;;1999.90;999.90;;;;;;;;;;4972963;28;20219;-71
2024/01/31 10:46:00;;;;;;;1999.90;999.90;;;;;;;;;;4974126;28;20712;-71
2024/01/31 10:48:46;;;;;;;1999.90;999.90;;;;;;;;;;4972726;28;20337;-70
2024/01/31 10:51:31;;;;;;;1999.90;999.90;;;;;;;;;;4972282;28;20434;-69
2024/01/31 10:54:17;;;;;;;1999.90;999.90;;;;;;;;;;4972599;28;20336;-70
2024/01/31 10:57:03;;;;;;;1999.90;999.90;;;;;;;;;;4971935;28;20316;-71
2024/01/31 10:59:50;;;;;;;1999.90;999.90;;;;;;;;;;4972843;28;20215;-70
2024/01/31 11:02:35;;;;;;;1999.90;999.90;;;;;;;;;;4972789;28;20329;-70
2024/01/31 11:05:21;;;;;;;1999.90;999.90;;;;;;;;;;4972404;28;20642;-70
2024/01/31 11:08:16;;;;;;;1999.90;999.90;;;;;;;;;;4970052;28;20419;-68
2024/01/31 11:11:01;;;;;;;1999.90;999.90;;;;;;;;;;4972362;28;20267;-69
2024/01/31 11:13:47;;;;;;;1999.90;999.90;;;;;;;;;;4972185;28;20807;-69
2024/01/31 11:16:32;;;;;;;1999.90;999.90;;;;;;;;;;4972446;28;20573;-69
2024/01/31 11:19:18;;;;;;;1999.90;999.90;;;;;;;;;;4971625;28;20324;-69
2024/01/31 11:22:06;;;;;;;1999.90;999.90;;;;;;;;;;4971811;28;20315;-69
2024/01/31 11:24:52;;;;;;;1999.90;999.90;;;;;;;;;;4971156;28;20207;-68
2024/01/31 11:27:38;;;;;;;1999.90;999.90;;;;;;;;;;4971916;28;20215;-68
2024/01/31 11:30:23;;;;;;;1999.90;999.90;;;;;;;;;;4971499;28;20219;-69
2024/01/31 11:33:08;;;;;;;1999.90;999.90;;;;;;;;;;4971957;28;20592;-69
2024/01/31 11:35:53;;;;;;;1999.90;999.90;;;;;;;;;;4971171;28;20208;-72
2024/01/31 11:38:40;;;;;;;1999.90;999.90;;;;;;;;;;4970057;28;20935;-71
2024/01/31 11:41:25;;;;;;;1999.90;999.90;;;;;;;;;;4971749;28;20442;-71
2024/01/31 11:44:10;;;;;;;1999.90;999.90;;;;;;;;;;4970624;28;20231;-71
2024/01/31 11:46:55;;;;;;;1999.90;999.90;;;;;;;;;;4971544;28;20216;-71
2024/01/31 11:49:40;;;;;;;1999.90;999.90;;;;;;;;;;4971836;28;20219;-71
2024/01/31 11:52:25;;;;;;;1999.90;999.90;;;;;;;;;;4969748;28;20311;-71
2024/01/31 11:55:12;;;;;;;1999.90;999.90;;;;;;;;;;4970371;28;20543;-70
2024/01/31 11:57:57;;;;;;;1999.90;999.90;;;;;;;;;;4970175;28;20230;-70
2024/01/31 12:00:42;;;;;;;1999.90;999.90;;;;;;;;;;4970394;28;20291;-70
2024/01/31 12:03:27;;;;;;;1999.90;999.90;;;;;;;;;;4970079;28;20212;-71
2024/01/31 12:06:17;;;;;;;1999.90;999.90;;;;;;;;;;4966938;28;20329;-72
2024/01/31 12:09:04;;;;;;;1999.90;999.90;;;;;;;;;;4971196;28;20682;-72
2024/01/31 12:11:50;;;;;;;1999.90;999.90;;;;;;;;;;4970467;28;20244;-71
2024/01/31 12:14:35;;;;;;;1999.90;999.90;;;;;;;;;;4967875;28;20498;-71
2024/01/31 12:17:21;;;;;;;1999.90;999.90;;;;;;;;;;4970350;28;20212;-70
2024/01/31 12:20:08;;;;;;;1999.90;999.90;;;;;;;;;;4968390;28;20584;-69
2024/01/31 12:22:53;;;;;;;1999.90;999.90;;;;;;;;;;4970372;28;20232;-71
2024/01/31 12:25:38;;;;;;;1999.90;999.90;;;;;;;;;;4969426;28;20719;-69
2024/01/31 12:28:24;;;;;;;1999.90;999.90;;;;;;;;;;4971267;28;20343;-70
2024/01/31 12:31:09;;;;;;;1999.90;999.90;;;;;;;;;;4970798;28;20271;-69
2024/01/31 12:33:54;;;;;;;1999.90;999.90;;;;;;;;;;4972378;28;20231;-70
2024/01/31 12:36:39;;;;;;;1999.90;999.90;;;;;;;;;;4969089;28;20208;-70
2024/01/31 12:39:24;;;;;;;1999.90;999.90;;;;;;;;;;4968325;28;20216;-72
2024/01/31 12:42:09;;;;;;;1999.90;999.90;;;;;;;;;;4969370;28;20606;-72
2024/01/31 12:44:56;;;;;;;1999.90;999.90;;;;;;;;;;4971276;28;20578;-72
2024/01/31 12:47:41;;;;;;;1999.90;999.90;;;;;;;;;;4969444;28;20216;-71
2024/01/31 12:50:26;;;;;;;1999.90;999.90;;;;;;;;;;4969780;28;20712;-72
2024/01/31 12:53:11;;;;;;;1999.90;999.90;;;;;;;;;;4971197;28;20220;-71
2024/01/31 12:55:56;;;;;;;1999.90;999.90;;;;;;;;;;4968949;28;20216;-71
2024/01/31 12:58:41;;;;;;;1999.90;999.90;;;;;;;;;;4968098;28;20231;-72
2024/01/31 13:01:27;;;;;;;1999.90;999.90;;;;;;;;;;4969015;28;20419;-71
2024/01/31 13:04:12;;;;;;;1999.90;999.90;;;;;;;;;;4970720;28;20234;-72
2024/01/31 13:06:58;;;;;;;1999.90;999.90;;;;;;;;;;4968313;28;20290;-72
2024/01/31 13:09:43;;;;;;;1999.90;999.90;;;;;;;;;;4970418;28;20684;-70
2024/01/31 13:12:28;;;;;;;1999.90;999.90;;;;;;;;;;4968204;28;20235;-71
2024/01/31 13:15:13;;;;;;;1999.90;999.90;;;;;;;;;;4969086;28;20219;-72
2024/01/31 13:17:59;;;;;;;1999.90;999.90;;;;;;;;;;4969469;28;20490;-74
2024/01/31 13:20:44;;;;;;;1999.90;999.90;;;;;;;;;;4970047;28;20227;-74
2024/01/31 13:23:29;;;;;;;1999.90;999.90;;;;;;;;;;4970565;28;20282;-74
2024/01/31 13:26:14;;;;;;;1999.90;999.90;;;;;;;;;;4969713;28;20224;-73
2024/01/31 13:28:59;;;;;;;1999.90;999.90;;;;;;;;;;4970076;28;20216;-74
2024/01/31 13:31:44;;;;;;;1999.90;999.90;;;;;;;;;;4968359;28;20607;-73
2024/01/31 13:34:31;;;;;;;1999.90;999.90;;;;;;;;;;4970073;28;20220;-71
2024/01/31 13:37:16;;;;;;;1999.90;999.90;;;;;;;;;;4966740;28;20689;-72
2024/01/31 13:40:01;;;;;;;1999.90;999.90;;;;;;;;;;4967936;28;20208;-72
2024/01/31 13:42:47;;;;;;;1999.90;999.90;;;;;;;;;;4970008;28;20314;-73
2024/01/31 13:45:33;;;;;;;1999.90;999.90;;;;;;;;;;4968509;28;20688;-72
2024/01/31 13:48:18;;;;;;;1999.90;999.90;;;;;;;;;;4971115;28;20219;-72
2024/01/31 13:51:06;;;;;;;1999.90;999.90;;;;;;;;;;4972548;28;20367;-73
2024/01/31 13:53:51;;;;;;;1999.90;999.90;;;;;;;;;;4973974;28;20286;-72
2024/01/31 13:56:35;;;;;;;1999.90;999.90;;;;;;;;;;4973768;28;20208;-72
2024/01/31 13:59:20;;;;;;;1999.90;999.90;;;;;;;;;;4971820;28;20211;-72
2024/01/31 14:02:06;;;;;;;1999.90;999.90;;;;;;;;;;4973431;28;20366;-73
2024/01/31 14:04:51;;;;;;;1999.90;999.90;;;;;;;;;;4973124;28;20218;-72
2024/01/31 14:07:37;;;;;;;1999.90;999.90;;;;;;;;;;4973254;28;20344;-73
2024/01/31 14:10:22;;;;;;;1999.90;999.90;;;;;;;;;;4972631;28;20692;-73
2024/01/31 14:13:07;;;;;;;1999.90;999.90;;;;;;;;;;4973748;28;20623;-72
2024/01/31 14:15:53;;;;;;;1999.90;999.90;;;;;;;;;;4970468;28;20201;-73
2024/01/31 14:18:38;;;;;;;1999.90;999.90;;;;;;;;;;4972265;28;20606;-72
2024/01/31 14:21:23;;;;;;;1999.90;999.90;;;;;;;;;;4971692;28;20317;-72
2024/01/31 14:24:09;;;;;;;1999.90;999.90;;;;;;;;;;4971555;28;20216;-72
2024/01/31 14:26:54;;;;;;;1999.90;999.90;;;;;;;;;;4972392;28;20228;-71
2024/01/31 14:29:39;;;;;;;1999.90;999.90;;;;;;;;;;4973315;28;20215;-73
2024/01/31 14:32:24;;;;;;;1999.90;999.90;;;;;;;;;;4972534;28;20298;-73
2024/01/31 14:35:09;;;;;;;1999.90;999.90;;;;;;;;;;4969830;28;20686;-73
2024/01/31 14:37:54;;;;;;;1999.90;999.90;;;;;;;;;;4972002;28;20212;-73
2024/01/31 14:40:41;;;;;;;1999.90;999.90;;;;;;;;;;4973629;28;20268;-73
2024/01/31 14:43:27;;;;;;;1999.90;999.90;;;;;;;;;;4973167;28;20216;-73
2024/01/31 14:46:12;;;;;;;1999.90;999.90;;;;;;;;;;4971835;28;20236;-72
2024/01/31 14:48:57;;;;;;;1999.90;999.90;;;;;;;;;;4972108;28;20694;-72
2024/01/31 14:51:42;;;;;;;1999.90;999.90;;;;;;;;;;4969867;28;20501;-73
2024/01/31 14:54:27;;;;;;;1999.90;999.90;;;;;;;;;;4970773;28;20223;-71
2024/01/31 14:57:13;;;;;;;1999.90;999.90;;;;;;;;;;4970983;28;21521;-71
2024/01/31 14:59:58;;;;;;;1999.90;999.90;;;;;;;;;;4971475;28;20690;-73
2024/01/31 15:02:43;;;;;;;1999.90;999.90;;;;;;;;;;4971499;28;20232;-72
2024/01/31 15:05:28;;;;;;;1999.90;999.90;;;;;;;;;;4970840;28;20207;-72
2024/01/31 15:08:13;;;;;;;1999.90;999.90;;;;;;;;;;4971392;28;20324;-73
2024/01/31 15:10:58;;;;;;;1999.90;999.90;;;;;;;;;;4972484;28;20244;-72
2024/01/31 15:13:44;;;;;;;1999.90;999.90;;;;;;;;;;4972742;28;20264;-72
2024/01/31 15:16:29;;;;;;;1999.90;999.90;;;;;;;;;;4972432;28;20259;-72
2024/01/31 15:19:14;;;;;;;1999.90;999.90;;;;;;;;;;4972036;28;20212;-73
2024/01/31 15:21:59;;;;;;;1999.90;999.90;;;;;;;;;;4971497;28;20469;-73
2024/01/31 15:24:44;;;;;;;1999.90;999.90;;;;;;;;;;4970944;28;20225;-71
2024/01/31 15:27:30;;;;;;;1999.90;999.90;;;;;;;;;;4970735;28;20223;-72
2024/01/31 15:30:17;;;;;;;1999.90;999.90;;;;;;;;;;4972268;28;20344;-72
2024/01/31 15:33:02;;;;;;;1999.90;999.90;;;;;;;;;;4972207;28;20259;-73
2024/01/31 15:35:47;;;;;;;1999.90;999.90;;;;;;;;;;4972031;28;20319;-73
2024/01/31 15:38:32;;;;;;;1999.90;999.90;;;;;;;;;;4970970;28;20474;-72
2024/01/31 15:41:17;;;;;;;1999.90;999.90;;;;;;;;;;4972079;28;20525;-71
2024/01/31 15:44:02;;;;;;;1999.90;999.90;;;;;;;;;;4972169;28;20251;-73
2024/01/31 15:46:48;;;;;;;1999.90;999.90;;;;;;;;;;4971738;28;20307;-71
2024/01/31 15:49:33;;;;;;;1999.90;999.90;;;;;;;;;;4971001;28;20838;-71
2024/01/31 15:52:18;;;;;;;1999.90;999.90;;;;;;;;;;4971300;28;20228;-72
2024/01/31 15:55:03;;;;;;;1999.90;999.90;;;;;;;;;;4971329;28;20582;-72
2024/01/31 15:57:48;;;;;;;1999.90;999.90;;;;;;;;;;4971207;28;20223;-73
2024/01/31 16:00:33;;;;;;;1999.90;999.90;;;;;;;;;;4970134;28;20287;-72
2024/01/31 16:03:20;;;;;;;1999.90;999.90;;;;;;;;;;4971243;28;20921;-72
2024/01/31 16:06:05;;;;;;;1999.90;999.90;;;;;;;;;;4971304;28;20240;-72
2024/01/31 16:08:51;;;;;;;1999.90;999.90;;;;;;;;;;4970934;28;20259;-71
2024/01/31 16:11:36;;;;;;;1999.90;999.90;;;;;;;;;;4971375;28;20712;-71
2024/01/31 16:14:21;;;;;;;1999.90;999.90;;;;;;;;;;4970265;28;20289;-72
2024/01/31 16:17:06;;;;;;;1999.90;999.90;;;;;;;;;;4970880;28;20335;-72
2024/01/31 16:19:52;;;;;;;1999.90;999.90;;;;;;;;;;4971135;28;20306;-71
2024/01/31 16:22:37;;;;;;;1999.90;999.90;;;;;;;;;;4970791;28;20470;-72
2024/01/31 16:25:22;;;;;;;1999.90;999.90;;;;;;;;;;4970080;28;20718;-71
2024/01/31 16:28:07;;;;;;;1999.90;999.90;;;;;;;;;;4970723;28;20218;-72
2024/01/31 16:30:55;;;;;;;1999.90;999.90;;;;;;;;;;4972524;28;20243;-71
2024/01/31 16:33:40;;;;;;;1999.90;999.90;;;;;;;;;;4968496;28;20348;-72
2024/01/31 16:36:27;;;;;;;1999.90;999.90;;;;;;;;;;4968450;28;20215;-72
2024/01/31 16:39:12;;;;;;;1999.90;999.90;;;;;;;;;;4970290;28;20356;-72
2024/01/31 16:41:57;;;;;;;1999.90;999.90;;;;;;;;;;4966872;28;20325;-71
2024/01/31 16:44:42;;;;;;;1999.90;999.90;;;;;;;;;;4968793;28;20739;-72
2024/01/31 16:47:27;;;;;;;1999.90;999.90;;;;;;;;;;4971050;28;20232;-72
2024/01/31 16:50:12;;;;;;;1999.90;999.90;;;;;;;;;;4969906;28;20211;-72
2024/01/31 16:52:58;;;;;;;1999.90;999.90;;;;;;;;;;4969341;28;20214;-72
2024/01/31 16:55:43;;;;;;;1999.90;999.90;;;;;;;;;;4970714;28;20211;-71
2024/01/31 16:58:28;;;;;;;1999.90;999.90;;;;;;;;;;4969731;28;20207;-72
2024/01/31 17:01:14;;;;;;;1999.90;999.90;;;;;;;;;;4970114;28;20363;-72
2024/01/31 17:03:59;;;;;;;1999.90;999.90;;;;;;;;;;4970660;28;20298;-72
2024/01/31 17:06:44;;;;;;;1999.90;999.90;;;;;;;;;;4970833;28;20272;-73
2024/01/31 17:09:30;;;;;;;1999.90;999.90;;;;;;;;;;4968453;28;20935;-70
2024/01/31 17:12:15;;;;;;;1999.90;999.90;;;;;;;;;;4970808;28;20710;-72
2024/01/31 17:15:00;;;;;;;1999.90;999.90;;;;;;;;;;4969913;28;20216;-72
2024/01/31 17:17:45;;;;;;;1999.90;999.90;;;;;;;;;;4970707;28;20242;-72
2024/01/31 17:20:30;;;;;;;1999.90;999.90;;;;;;;;;;4969114;28;20236;-71
2024/01/31 17:23:15;;;;;;;1999.90;999.90;;;;;;;;;;4974559;28;20212;-71
2024/01/31 17:26:02;;;;;;;1999.90;999.90;;;;;;;;;;4974621;28;20284;-72
2024/01/31 17:28:47;;;;;;;1999.90;999.90;;;;;;;;;;4973952;28;20234;-72
2024/01/31 17:31:33;;;;;;;1999.90;999.90;;;;;;;;;;4972394;28;20228;-72
2024/01/31 17:34:18;;;;;;;1999.90;999.90;;;;;;;;;;4973688;28;20218;-71
2024/01/31 17:37:03;;;;;;;1999.90;999.90;;;;;;;;;;4973433;28;20479;-71
2024/01/31 17:39:48;;;;;;;1999.90;999.90;;;;;;;;;;4974222;28;20441;-71
2024/01/31 17:42:34;;;;;;;1999.90;999.90;;;;;;;;;;4974132;28;20743;-71
2024/01/31 17:45:19;;;;;;;1999.90;999.90;;;;;;;;;;4973661;28;20392;-70
2024/01/31 17:48:04;;;;;;;1999.90;999.90;;;;;;;;;;4973451;28;20239;-70
2024/01/31 17:50:49;;;;;;;1999.90;999.90;;;;;;;;;;4973526;28;20243;-71
2024/01/31 17:53:34;;;;;;;1999.90;999.90;;;;;;;;;;4969362;28;20431;-71
2024/01/31 17:56:21;;;;;;;1999.90;999.90;;;;;;;;;;4973647;28;20238;-72
2024/01/31 17:59:07;;;;;;;1999.90;999.90;;;;;;;;;;4972893;28;20207;-71
2024/01/31 18:01:53;;;;;;;1999.90;999.90;;;;;;;;;;4974010;28;20246;-71
2024/01/31 18:04:38;;;;;;;1999.90;999.90;;;;;;;;;;4969984;28;20703;-71
2024/01/31 18:07:25;;;;;;;1999.90;999.90;;;;;;;;;;4974082;28;20219;-70
2024/01/31 18:10:10;;;;;;;1999.90;999.90;;;;;;;;;;4975101;28;20215;-70
2024/01/31 18:12:56;;;;;;;1999.90;999.90;;;;;;;;;;4975664;28;20711;-71
2024/01/31 18:15:43;;;;;;;1999.90;999.90;;;;;;;;;;4975743;28;20204;-70
2024/01/31 18:18:28;;;;;;;1999.90;999.90;;;;;;;;;;4974327;28;20208;-70
2024/01/31 18:21:13;;;;;;;1999.90;999.90;;;;;;;;;;4975724;28;20739;-70
2024/01/31 18:23:58;;;;;;;1999.90;999.90;;;;;;;;;;4974683;28;20927;-70
2024/01/31 18:26:43;;;;;;;1999.90;999.90;;;;;;;;;;4975292;28;20199;-71
2024/01/31 18:29:29;;;;;;;1999.90;999.90;;;;;;;;;;4975337;28;20203;-71
2024/01/31 18:32:15;;;;;;;1999.90;999.90;;;;;;;;;;4982224;28;20235;-71
2024/01/31 18:35:00;;;;;;;1999.90;999.90;;;;;;;;;;4975337;28;20708;-71
2024/01/31 18:37:44;;;;;;;1999.90;999.90;;;;;;;;;;4975040;28;20509;-71
2024/01/31 18:40:29;;;;;;;1999.90;999.90;;;;;;;;;;4973763;28;20468;-70
2024/01/31 18:43:14;;;;;;;1999.90;999.90;;;;;;;;;;4972228;28;20244;-71
2024/01/31 18:45:59;;;;;;;1999.90;999.90;;;;;;;;;;4970759;28;20223;-70
2024/01/31 18:48:46;;;;;;;1999.90;999.90;;;;;;;;;;4974139;28;20240;-70
2024/01/31 18:51:31;;;;;;;1999.90;999.90;;;;;;;;;;4969855;28;20256;-71
2024/01/31 18:54:16;;;;;;;1999.90;999.90;;;;;;;;;;4974852;28;20678;-70
2024/01/31 18:57:01;;;;;;;1999.90;999.90;;;;;;;;;;4970540;28;20752;-70
2024/01/31 18:59:46;;;;;;;1999.90;999.90;;;;;;;;;;4968502;28;20740;-71
2024/01/31 19:02:32;;;;;;;1999.90;999.90;;;;;;;;;;4974308;28;20255;-71
2024/01/31 19:05:18;;;;;;;1999.90;999.90;;;;;;;;;;4971783;28;20218;-70
2024/01/31 19:08:03;;;;;;;1999.90;999.90;;;;;;;;;;4973803;28;20309;-71
2024/01/31 19:10:49;;;;;;;1999.90;999.90;;;;;;;;;;4963482;28;20434;-71
2024/01/31 19:13:33;;;;;;;1999.90;999.90;;;;;;;;;;4966874;28;20328;-71
2024/01/31 19:16:18;;;;;;;1999.90;999.90;;;;;;;;;;4971286;28;20727;-71
2024/01/31 19:19:03;;;;;;;1999.90;999.90;;;;;;;;;;4973757;28;20212;-70
2024/01/31 19:21:49;;;;;;;1999.90;999.90;;;;;;;;;;4969108;28;20369;-70
2024/01/31 19:24:34;;;;;;;1999.90;999.90;;;;;;;;;;4970966;28;20340;-70
2024/01/31 19:27:19;;;;;;;1999.90;999.90;;;;;;;;;;4968823;28;20417;-71
2024/01/31 19:30:04;;;;;;;1999.90;999.90;;;;;;;;;;4970715;28;20712;-70
2024/01/31 19:32:49;;;;;;;1999.90;999.90;;;;;;;;;;4969644;28;20231;-71
2024/01/31 19:35:36;;;;;;;1999.90;999.90;;;;;;;;;;4969730;28;20804;-71
2024/01/31 19:38:22;;;;;;;1999.90;999.90;;;;;;;;;;4971892;28;20215;-71
2024/01/31 19:41:07;;;;;;;1999.90;999.90;;;;;;;;;;4973575;28;20230;-69
2024/01/31 19:43:52;;;;;;;1999.90;999.90;;;;;;;;;;4975869;28;20708;-69
2024/01/31 19:46:39;;;;;;;1999.90;999.90;;;;;;;;;;4975659;28;20656;-70
2024/01/31 19:49:25;;;;;;;1999.90;999.90;;;;;;;;;;4974863;28;20238;-70
2024/01/31 19:52:10;;;;;;;1999.90;999.90;;;;;;;;;;4973701;28;20691;-69
2024/01/31 19:54:57;;;;;;;1999.90;999.90;;;;;;;;;;4970547;28;20319;-70
2024/01/31 19:57:42;;;;;;;1999.90;999.90;;;;;;;;;;4972011;28;20785;-70
2024/01/31 20:00:26;;;;;;;1999.90;999.90;;;;;;;;;;4973496;28;20223;-70
2024/01/31 20:03:11;;;;;;;1999.90;999.90;;;;;;;;;;4973685;28;20211;-69
2024/01/31 20:05:56;;;;;;;1999.90;999.90;;;;;;;;;;4968235;28;20260;-69
2024/01/31 20:08:41;;;;;;;1999.90;999.90;;;;;;;;;;4972074;28;20224;-69
2024/01/31 20:11:27;;;;;;;1999.90;999.90;;;;;;;;;;4973235;28;20800;-69
2024/01/31 20:14:12;;;;;;;1999.90;999.90;;;;;;;;;;4973313;28;20692;-68
2024/01/31 20:16:57;;;;;;;1999.90;999.90;;;;;;;;;;4973179;28;20348;-69
2024/01/31 20:19:44;;;;;;;1999.90;999.90;;;;;;;;;;4965627;28;20347;-68
2024/01/31 20:22:29;;;;;;;1999.90;999.90;;;;;;;;;;4973198;28;20255;-69